sensor_id;sensor_type;location;lat;lon;timestamp;noise_LAeq;noise_LA_min;noise_LA_max;noise_LA01;noise_LA95
76339;Laerm;26644;50.248;19.032;2023-02-19T00:01:14;50.78;41.82;67.14;;
76339;Laerm;26644;50.248;19.032;2023-02-19T00:04:22;49.41;44.65;55.57;;
76339;Laerm;26644;50.248;19.032;2023-02-19T00:07:27;48.00;44.76;56.34;;
76339;Laerm;26644;50.248;19.032;2023-02-19T00:10:32;48.55;44.32;55.90;;
76339;Laerm;26644;50.248;19.032;2023-02-19T00:13:41;47.43;43.65;58.64;;
76339;Laerm;26644;50.248;19.032;2023-02-19T00:16:47;47.95;43.74;53.49;;
76339;Laerm;26644;50.248;19.032;2023-02-19T00:19:56;46.65;42.62;51.91;;
76339;Laerm;26644;50.248;19.032;2023-02-19T00:23:01;47.66;41.92;52.96;;
76339;Laerm;26644;50.248;19.032;2023-02-19T00:26:10;46.37;40.47;55.65;;
76339;Laerm;26644;50.248;19.032;2023-02-19T00:29:19;48.50;43.62;56.09;;
76339;Laerm;26644;50.248;19.032;2023-02-19T00:32:27;48.04;42.99;54.29;;
76339;Laerm;26644;50.248;19.032;2023-02-19T00:35:36;48.60;43.45;55.90;;
76339;Laerm;26644;50.248;19.032;2023-02-19T00:38:43;49.04;43.90;55.24;;
76339;Laerm;26644;50.248;19.032;2023-02-19T00:41:49;47.32;42.11;52.70;;
76339;Laerm;26644;50.248;19.032;2023-02-19T00:44:54;48.29;43.97;53.01;;
76339;Laerm;26644;50.248;19.032;2023-02-19T00:47:59;48.95;43.23;55.08;;
76339;Laerm;26644;50.248;19.032;2023-02-19T00:51:08;47.89;43.17;53.56;;
76339;Laerm;26644;50.248;19.032;2023-02-19T00:54:14;48.41;43.16;55.00;;
76339;Laerm;26644;50.248;19.032;2023-02-19T00:57:19;46.53;41.33;54.83;;
76339;Laerm;26644;50.248;19.032;2023-02-19T01:00:25;47.03;43.56;51.72;;
76339;Laerm;26644;50.248;19.032;2023-02-19T01:03:31;46.96;41.88;51.78;;
76339;Laerm;26644;50.248;19.032;2023-02-19T01:06:38;47.32;42.91;52.27;;
76339;Laerm;26644;50.248;19.032;2023-02-19T01:09:44;46.72;41.80;51.10;;
76339;Laerm;26644;50.248;19.032;2023-02-19T01:12:49;46.35;42.31;51.37;;
76339;Laerm;26644;50.248;19.032;2023-02-19T01:16:03;47.67;44.38;53.43;;
76339;Laerm;26644;50.248;19.032;2023-02-19T01:19:08;47.91;43.49;54.35;;
76339;Laerm;26644;50.248;19.032;2023-02-19T01:22:16;49.54;42.52;63.09;;
76339;Laerm;26644;50.248;19.032;2023-02-19T01:25:21;48.06;43.44;59.79;;
76339;Laerm;26644;50.248;19.032;2023-02-19T01:28:27;49.17;43.81;58.35;;
76339;Laerm;26644;50.248;19.032;2023-02-19T01:31:32;46.73;42.03;53.79;;
76339;Laerm;26644;50.248;19.032;2023-02-19T01:34:38;46.18;41.47;53.57;;
76339;Laerm;26644;50.248;19.032;2023-02-19T01:37:46;48.16;41.65;53.91;;
76339;Laerm;26644;50.248;19.032;2023-02-19T01:40:55;46.42;41.78;52.66;;
76339;Laerm;26644;50.248;19.032;2023-02-19T01:44:04;46.86;41.86;52.66;;
76339;Laerm;26644;50.248;19.032;2023-02-19T01:47:13;47.66;42.85;53.59;;
76339;Laerm;26644;50.248;19.032;2023-02-19T01:50:19;47.56;42.81;56.93;;
76339;Laerm;26644;50.248;19.032;2023-02-19T01:53:35;47.16;42.15;53.18;;
76339;Laerm;26644;50.248;19.032;2023-02-19T01:56:44;47.86;41.70;60.27;;
76339;Laerm;26644;50.248;19.032;2023-02-19T01:59:57;47.83;43.03;54.23;;
76339;Laerm;26644;50.248;19.032;2023-02-19T02:03:14;47.56;42.86;55.29;;
76339;Laerm;26644;50.248;19.032;2023-02-19T02:06:24;47.66;42.31;53.56;;
76339;Laerm;26644;50.248;19.032;2023-02-19T02:09:32;48.64;44.21;53.72;;
76339;Laerm;26644;50.248;19.032;2023-02-19T02:12:56;48.06;43.50;54.33;;
76339;Laerm;26644;50.248;19.032;2023-02-19T02:16:21;46.80;42.36;51.43;;
76339;Laerm;26644;50.248;19.032;2023-02-19T02:20:06;48.19;43.58;62.29;;
76339;Laerm;26644;50.248;19.032;2023-02-19T02:23:38;48.78;42.53;60.13;;
76339;Laerm;26644;50.248;19.032;2023-02-19T02:27:10;47.52;42.88;61.78;;
76339;Laerm;26644;50.248;19.032;2023-02-19T02:30:38;48.60;41.64;55.92;;
76339;Laerm;26644;50.248;19.032;2023-02-19T02:33:58;47.48;42.41;53.85;;
76339;Laerm;26644;50.248;19.032;2023-02-19T02:37:10;48.30;44.52;57.40;;
76339;Laerm;26644;50.248;19.032;2023-02-19T02:40:17;60.80;42.30;75.41;;
76339;Laerm;26644;50.248;19.032;2023-02-19T02:43:23;45.63;40.16;52.77;;
76339;Laerm;26644;50.248;19.032;2023-02-19T02:46:39;47.47;41.56;53.07;;
76339;Laerm;26644;50.248;19.032;2023-02-19T02:49:45;48.35;43.91;55.57;;
76339;Laerm;26644;50.248;19.032;2023-02-19T02:53:15;47.03;41.41;52.04;;
76339;Laerm;26644;50.248;19.032;2023-02-19T02:56:38;48.05;42.91;58.86;;
76339;Laerm;26644;50.248;19.032;2023-02-19T02:59:47;49.94;44.55;65.25;;
76339;Laerm;26644;50.248;19.032;2023-02-19T03:02:59;46.80;40.73;52.34;;
76339;Laerm;26644;50.248;19.032;2023-02-19T03:06:08;46.70;42.80;52.20;;
76339;Laerm;26644;50.248;19.032;2023-02-19T03:09:23;47.84;39.80;54.46;;
76339;Laerm;26644;50.248;19.032;2023-02-19T03:12:36;45.54;41.61;52.02;;
76339;Laerm;26644;50.248;19.032;2023-02-19T03:16:03;46.67;42.51;56.34;;
76339;Laerm;26644;50.248;19.032;2023-02-19T03:19:30;46.77;42.76;51.13;;
76339;Laerm;26644;50.248;19.032;2023-02-19T03:22:43;49.04;44.30;54.72;;
76339;Laerm;26644;50.248;19.032;2023-02-19T03:25:50;47.81;43.57;52.77;;
76339;Laerm;26644;50.248;19.032;2023-02-19T03:29:14;47.06;42.15;60.87;;
76339;Laerm;26644;50.248;19.032;2023-02-19T03:32:44;48.12;43.43;53.57;;
76339;Laerm;26644;50.248;19.032;2023-02-19T03:36:00;49.12;44.35;56.72;;
76339;Laerm;26644;50.248;19.032;2023-02-19T03:39:16;48.75;43.63;58.78;;
76339;Laerm;26644;50.248;19.032;2023-02-19T03:42:37;46.94;43.23;50.63;;
76339;Laerm;26644;50.248;19.032;2023-02-19T03:45:56;48.38;43.41;53.48;;
76339;Laerm;26644;50.248;19.032;2023-02-19T03:49:14;47.79;42.83;53.39;;
76339;Laerm;26644;50.248;19.032;2023-02-19T03:52:41;48.81;43.49;55.62;;
76339;Laerm;26644;50.248;19.032;2023-02-19T03:56:05;46.97;42.24;52.65;;
76339;Laerm;26644;50.248;19.032;2023-02-19T03:59:26;47.69;43.81;55.05;;
76339;Laerm;26644;50.248;19.032;2023-02-19T04:02:43;48.95;44.86;54.59;;
76339;Laerm;26644;50.248;19.032;2023-02-19T04:05:59;47.88;43.84;57.31;;
76339;Laerm;26644;50.248;19.032;2023-02-19T04:09:13;47.41;43.57;53.55;;
76339;Laerm;26644;50.248;19.032;2023-02-19T04:12:26;47.20;43.65;53.82;;
76339;Laerm;26644;50.248;19.032;2023-02-19T04:15:35;48.23;44.21;53.34;;
76339;Laerm;26644;50.248;19.032;2023-02-19T04:18:48;48.44;44.56;52.62;;
76339;Laerm;26644;50.248;19.032;2023-02-19T04:21:57;47.14;43.91;52.45;;
76339;Laerm;26644;50.248;19.032;2023-02-19T04:25:07;47.21;41.26;54.66;;
76339;Laerm;26644;50.248;19.032;2023-02-19T04:28:13;46.66;42.10;52.13;;
76339;Laerm;26644;50.248;19.032;2023-02-19T04:31:21;48.05;42.87;54.63;;
76339;Laerm;26644;50.248;19.032;2023-02-19T04:34:26;48.16;44.60;56.20;;
76339;Laerm;26644;50.248;19.032;2023-02-19T04:37:32;49.46;44.74;57.63;;
76339;Laerm;26644;50.248;19.032;2023-02-19T04:40:40;51.56;46.51;59.57;;
76339;Laerm;26644;50.248;19.032;2023-02-19T04:43:45;48.76;44.63;54.34;;
76339;Laerm;26644;50.248;19.032;2023-02-19T04:46:50;48.55;45.22;58.39;;
76339;Laerm;26644;50.248;19.032;2023-02-19T04:49:56;48.48;45.24;65.89;;
76339;Laerm;26644;50.248;19.032;2023-02-19T04:53:01;49.22;44.81;57.78;;
76339;Laerm;26644;50.248;19.032;2023-02-19T04:56:14;49.02;44.33;54.08;;
76339;Laerm;26644;50.248;19.032;2023-02-19T04:59:19;48.57;43.61;52.42;;
76339;Laerm;26644;50.248;19.032;2023-02-19T05:02:25;49.80;45.63;57.31;;
76339;Laerm;26644;50.248;19.032;2023-02-19T05:05:30;49.13;45.61;54.95;;
76339;Laerm;26644;50.248;19.032;2023-02-19T05:08:36;49.57;44.61;57.03;;
76339;Laerm;26644;50.248;19.032;2023-02-19T05:11:43;49.03;43.72;64.99;;
76339;Laerm;26644;50.248;19.032;2023-02-19T05:14:49;48.05;43.94;54.34;;
76339;Laerm;26644;50.248;19.032;2023-02-19T05:17:54;48.60;44.75;52.53;;
76339;Laerm;26644;50.248;19.032;2023-02-19T05:21:01;49.52;45.59;56.86;;
76339;Laerm;26644;50.248;19.032;2023-02-19T05:24:06;49.47;45.34;54.54;;
76339;Laerm;26644;50.248;19.032;2023-02-19T05:27:14;50.61;46.28;70.95;;
76339;Laerm;26644;50.248;19.032;2023-02-19T05:30:19;49.89;44.18;58.06;;
76339;Laerm;26644;50.248;19.032;2023-02-19T05:33:25;49.05;44.59;55.63;;
76339;Laerm;26644;50.248;19.032;2023-02-19T05:36:31;49.53;44.53;56.97;;
76339;Laerm;26644;50.248;19.032;2023-02-19T05:39:38;49.95;45.82;55.21;;
76339;Laerm;26644;50.248;19.032;2023-02-19T05:42:46;50.09;46.38;60.65;;
76339;Laerm;26644;50.248;19.032;2023-02-19T05:45:51;50.45;47.40;58.21;;
76339;Laerm;26644;50.248;19.032;2023-02-19T05:48:57;53.41;49.63;60.67;;
76339;Laerm;26644;50.248;19.032;2023-02-19T05:52:03;54.35;51.70;59.58;;
76339;Laerm;26644;50.248;19.032;2023-02-19T05:55:09;54.77;52.02;65.89;;
76339;Laerm;26644;50.248;19.032;2023-02-19T05:58:17;54.91;51.22;74.82;;
76339;Laerm;26644;50.248;19.032;2023-02-19T06:01:26;53.69;50.04;66.31;;
76339;Laerm;26644;50.248;19.032;2023-02-19T06:04:32;54.05;49.76;79.40;;
76339;Laerm;26644;50.248;19.032;2023-02-19T06:07:37;52.48;47.96;72.99;;
76339;Laerm;26644;50.248;19.032;2023-02-19T06:10:44;52.76;49.59;64.68;;
76339;Laerm;26644;50.248;19.032;2023-02-19T06:13:52;60.22;49.62;81.21;;
76339;Laerm;26644;50.248;19.032;2023-02-19T06:16:57;53.21;48.90;65.02;;
76339;Laerm;26644;50.248;19.032;2023-02-19T06:20:03;52.98;48.71;62.53;;
76339;Laerm;26644;50.248;19.032;2023-02-19T06:23:09;52.70;49.29;59.55;;
76339;Laerm;26644;50.248;19.032;2023-02-19T06:26:16;52.12;47.81;60.02;;
76339;Laerm;26644;50.248;19.032;2023-02-19T06:29:25;52.15;48.19;65.68;;
76339;Laerm;26644;50.248;19.032;2023-02-19T06:32:30;53.10;47.78;77.26;;
76339;Laerm;26644;50.248;19.032;2023-02-19T06:35:36;51.14;47.58;58.78;;
76339;Laerm;26644;50.248;19.032;2023-02-19T06:38:41;51.19;46.74;72.13;;
76339;Laerm;26644;50.248;19.032;2023-02-19T06:41:47;52.30;47.51;69.60;;
76339;Laerm;26644;50.248;19.032;2023-02-19T06:44:54;50.65;46.04;67.58;;
76339;Laerm;26644;50.248;19.032;2023-02-19T06:48:00;51.25;46.21;62.66;;
76339;Laerm;26644;50.248;19.032;2023-02-19T06:51:06;52.64;49.23;68.95;;
76339;Laerm;26644;50.248;19.032;2023-02-19T06:54:12;51.25;47.94;58.02;;
76339;Laerm;26644;50.248;19.032;2023-02-19T06:57:17;51.60;47.03;59.80;;
76339;Laerm;26644;50.248;19.032;2023-02-19T07:00:26;52.21;48.58;60.83;;
76339;Laerm;26644;50.248;19.032;2023-02-19T07:03:30;51.18;47.59;61.92;;
76339;Laerm;26644;50.248;19.032;2023-02-19T07:06:38;52.13;48.66;63.44;;
76339;Laerm;26644;50.248;19.032;2023-02-19T07:09:43;51.21;47.95;69.32;;
76339;Laerm;26644;50.248;19.032;2023-02-19T07:12:48;52.46;47.51;64.47;;
76339;Laerm;26644;50.248;19.032;2023-02-19T07:16:02;52.65;48.05;67.91;;
76339;Laerm;26644;50.248;19.032;2023-02-19T07:19:10;54.24;49.42;80.38;;
76339;Laerm;26644;50.248;19.032;2023-02-19T07:22:15;52.43;48.93;63.40;;
76339;Laerm;26644;50.248;19.032;2023-02-19T07:25:21;53.85;49.17;74.45;;
76339;Laerm;26644;50.248;19.032;2023-02-19T07:28:26;52.80;48.76;65.93;;
76339;Laerm;26644;50.248;19.032;2023-02-19T07:31:34;53.99;50.46;65.91;;
76339;Laerm;26644;50.248;19.032;2023-02-19T07:34:39;53.01;48.59;61.97;;
76339;Laerm;26644;50.248;19.032;2023-02-19T07:37:45;53.04;49.15;64.11;;
76339;Laerm;26644;50.248;19.032;2023-02-19T07:40:50;53.14;49.87;64.35;;
76339;Laerm;26644;50.248;19.032;2023-02-19T07:43:57;52.46;49.06;68.87;;
76339;Laerm;26644;50.248;19.032;2023-02-19T07:47:04;53.39;50.01;66.67;;
76339;Laerm;26644;50.248;19.032;2023-02-19T07:50:10;52.83;49.04;62.95;;
76339;Laerm;26644;50.248;19.032;2023-02-19T07:53:15;52.22;49.04;63.38;;
76339;Laerm;26644;50.248;19.032;2023-02-19T07:56:21;52.22;49.04;66.05;;
76339;Laerm;26644;50.248;19.032;2023-02-19T07:59:26;53.05;48.76;66.44;;
76339;Laerm;26644;50.248;19.032;2023-02-19T08:02:34;52.58;48.84;65.51;;
76339;Laerm;26644;50.248;19.032;2023-02-19T08:05:51;52.23;48.18;57.01;;
76339;Laerm;26644;50.248;19.032;2023-02-19T08:08:57;52.69;49.15;73.00;;
76339;Laerm;26644;50.248;19.032;2023-02-19T08:12:03;52.67;49.03;72.42;;
76339;Laerm;26644;50.248;19.032;2023-02-19T08:15:35;53.62;49.40;59.88;;
76339;Laerm;26644;50.248;19.032;2023-02-19T08:18:43;53.32;48.15;60.61;;
76339;Laerm;26644;50.248;19.032;2023-02-19T08:21:49;52.87;49.27;76.60;;
76339;Laerm;26644;50.248;19.032;2023-02-19T08:24:54;54.41;49.04;70.09;;
76339;Laerm;26644;50.248;19.032;2023-02-19T08:28:00;53.80;48.79;68.36;;
76339;Laerm;26644;50.248;19.032;2023-02-19T08:31:08;53.52;49.77;69.72;;
76339;Laerm;26644;50.248;19.032;2023-02-19T08:34:17;53.62;49.78;62.54;;
76339;Laerm;26644;50.248;19.032;2023-02-19T08:37:22;53.49;49.02;73.67;;
76339;Laerm;26644;50.248;19.032;2023-02-19T08:40:28;57.52;50.25;73.33;;
76339;Laerm;26644;50.248;19.032;2023-02-19T08:43:34;54.73;50.36;65.21;;
76339;Laerm;26644;50.248;19.032;2023-02-19T08:46:40;54.41;51.54;61.87;;
76339;Laerm;26644;50.248;19.032;2023-02-19T08:49:47;54.73;51.13;74.71;;
76339;Laerm;26644;50.248;19.032;2023-02-19T08:52:53;56.80;53.08;74.10;;
76339;Laerm;26644;50.248;19.032;2023-02-19T08:56:03;54.48;51.08;67.41;;
76339;Laerm;26644;50.248;19.032;2023-02-19T08:59:09;53.30;50.00;70.35;;
76339;Laerm;26644;50.248;19.032;2023-02-19T09:02:14;53.22;50.04;70.51;;
76339;Laerm;26644;50.248;19.032;2023-02-19T09:05:23;54.08;50.46;74.17;;
76339;Laerm;26644;50.248;19.032;2023-02-19T09:08:28;55.01;52.02;67.59;;
76339;Laerm;26644;50.248;19.032;2023-02-19T09:11:33;55.84;52.25;64.07;;
76339;Laerm;26644;50.248;19.032;2023-02-19T09:14:38;55.49;52.05;70.61;;
76339;Laerm;26644;50.248;19.032;2023-02-19T09:17:44;58.54;51.78;72.16;;
76339;Laerm;26644;50.248;19.032;2023-02-19T09:20:52;55.28;52.53;72.05;;
76339;Laerm;26644;50.248;19.032;2023-02-19T09:23:59;55.10;50.70;68.46;;
76339;Laerm;26644;50.248;19.032;2023-02-19T09:27:03;54.90;51.55;77.49;;
76339;Laerm;26644;50.248;19.032;2023-02-19T09:30:10;55.14;51.51;65.41;;
76339;Laerm;26644;50.248;19.032;2023-02-19T09:33:15;55.38;51.48;83.59;;
76339;Laerm;26644;50.248;19.032;2023-02-19T09:36:23;54.95;51.55;74.91;;
76339;Laerm;26644;50.248;19.032;2023-02-19T09:39:28;56.13;53.29;65.24;;
76339;Laerm;26644;50.248;19.032;2023-02-19T09:42:34;56.48;53.09;65.66;;
76339;Laerm;26644;50.248;19.032;2023-02-19T09:45:39;56.70;52.33;67.15;;
76339;Laerm;26644;50.248;19.032;2023-02-19T09:48:46;55.69;51.96;69.65;;
76339;Laerm;26644;50.248;19.032;2023-02-19T09:52:00;55.60;51.29;80.94;;
76339;Laerm;26644;50.248;19.032;2023-02-19T09:55:17;55.58;51.75;63.42;;
76339;Laerm;26644;50.248;19.032;2023-02-19T09:58:33;55.88;52.16;64.83;;
76339;Laerm;26644;50.248;19.032;2023-02-19T10:01:41;55.18;50.99;66.71;;
76339;Laerm;26644;50.248;19.032;2023-02-19T10:04:50;54.19;50.19;63.37;;
76339;Laerm;26644;50.248;19.032;2023-02-19T10:07:59;54.56;51.31;61.20;;
76339;Laerm;26644;50.248;19.032;2023-02-19T10:11:12;54.89;51.08;66.60;;
76339;Laerm;26644;50.248;19.032;2023-02-19T10:14:29;54.84;51.06;59.48;;
76339;Laerm;26644;50.248;19.032;2023-02-19T10:17:39;54.48;50.81;67.31;;
76339;Laerm;26644;50.248;19.032;2023-02-19T10:20:46;54.06;50.26;60.80;;
76339;Laerm;26644;50.248;19.032;2023-02-19T10:24:00;55.17;50.78;71.95;;
76339;Laerm;26644;50.248;19.032;2023-02-19T10:27:12;55.59;48.33;76.72;;
76339;Laerm;26644;50.248;19.032;2023-02-19T10:30:22;53.39;48.89;74.81;;
76339;Laerm;26644;50.248;19.032;2023-02-19T10:33:29;52.31;48.96;59.70;;
76339;Laerm;26644;50.248;19.032;2023-02-19T10:36:38;53.91;49.41;71.05;;
76339;Laerm;26644;50.248;19.032;2023-02-19T10:39:50;52.76;49.50;69.95;;
76339;Laerm;26644;50.248;19.032;2023-02-19T10:42:59;52.96;49.31;58.92;;
76339;Laerm;26644;50.248;19.032;2023-02-19T10:46:16;52.62;49.46;58.28;;
76339;Laerm;26644;50.248;19.032;2023-02-19T10:49:27;52.73;49.53;64.90;;
76339;Laerm;26644;50.248;19.032;2023-02-19T10:52:35;52.65;48.79;63.41;;
76339;Laerm;26644;50.248;19.032;2023-02-19T10:55:42;52.61;49.47;61.80;;
76339;Laerm;26644;50.248;19.032;2023-02-19T10:58:48;52.85;48.81;63.29;;
76339;Laerm;26644;50.248;19.032;2023-02-19T11:01:59;52.42;48.69;63.93;;
76339;Laerm;26644;50.248;19.032;2023-02-19T11:05:17;52.27;47.73;69.71;;
76339;Laerm;26644;50.248;19.032;2023-02-19T11:08:24;52.83;47.46;67.19;;
76339;Laerm;26644;50.248;19.032;2023-02-19T11:11:37;54.49;48.42;69.79;;
76339;Laerm;26644;50.248;19.032;2023-02-19T11:14:44;53.39;49.44;63.94;;
76339;Laerm;26644;50.248;19.032;2023-02-19T11:18:18;55.38;49.78;67.15;;
76339;Laerm;26644;50.248;19.032;2023-02-19T11:21:29;58.40;48.11;89.60;;
76339;Laerm;26644;50.248;19.032;2023-02-19T11:24:37;54.93;49.78;72.59;;
76339;Laerm;26644;50.248;19.032;2023-02-19T11:27:59;53.21;48.60;63.88;;
76339;Laerm;26644;50.248;19.032;2023-02-19T11:31:24;55.59;49.85;86.25;;
76339;Laerm;26644;50.248;19.032;2023-02-19T11:34:32;53.17;49.37;68.97;;
76339;Laerm;26644;50.248;19.032;2023-02-19T11:37:54;52.87;49.24;63.37;;
76339;Laerm;26644;50.248;19.032;2023-02-19T11:41:17;54.46;50.79;63.91;;
76339;Laerm;26644;50.248;19.032;2023-02-19T11:44:56;52.47;48.84;59.69;;
76339;Laerm;26644;50.248;19.032;2023-02-19T11:48:26;53.36;49.57;69.39;;
76339;Laerm;26644;50.248;19.032;2023-02-19T11:52:10;53.02;49.51;62.87;;
76339;Laerm;26644;50.248;19.032;2023-02-19T11:55:33;53.07;49.79;64.36;;
76339;Laerm;26644;50.248;19.032;2023-02-19T11:58:59;52.87;49.19;65.43;;
76339;Laerm;26644;50.248;19.032;2023-02-19T12:02:49;53.39;49.33;61.06;;
76339;Laerm;26644;50.248;19.032;2023-02-19T12:06:21;53.31;49.32;67.72;;
76339;Laerm;26644;50.248;19.032;2023-02-19T12:09:51;53.54;49.35;59.99;;
76339;Laerm;26644;50.248;19.032;2023-02-19T12:13:17;52.61;49.11;60.04;;
76339;Laerm;26644;50.248;19.032;2023-02-19T12:16:39;53.07;49.01;60.31;;
76339;Laerm;26644;50.248;19.032;2023-02-19T12:20:13;53.70;49.78;66.13;;
76339;Laerm;26644;50.248;19.032;2023-02-19T12:23:49;54.52;50.68;67.44;;
76339;Laerm;26644;50.248;19.032;2023-02-19T12:27:18;54.45;51.17;65.56;;
76339;Laerm;26644;50.248;19.032;2023-02-19T12:34:34;53.83;50.14;58.16;;
76339;Laerm;26644;50.248;19.032;2023-02-19T12:38:05;54.66;50.45;64.62;;
76339;Laerm;26644;50.248;19.032;2023-02-19T12:41:28;55.27;51.26;64.42;;
76339;Laerm;26644;50.248;19.032;2023-02-19T12:44:44;55.11;51.64;64.65;;
76339;Laerm;26644;50.248;19.032;2023-02-19T12:48:05;54.35;50.82;62.35;;
76339;Laerm;26644;50.248;19.032;2023-02-19T12:51:24;54.66;50.77;77.21;;
76339;Laerm;26644;50.248;19.032;2023-02-19T12:54:41;53.88;50.52;60.99;;
76339;Laerm;26644;50.248;19.032;2023-02-19T12:57:50;54.89;50.25;74.74;;
76339;Laerm;26644;50.248;19.032;2023-02-19T13:00:58;53.72;50.26;60.87;;
76339;Laerm;26644;50.248;19.032;2023-02-19T13:04:23;54.88;51.56;64.93;;
76339;Laerm;26644;50.248;19.032;2023-02-19T13:07:39;55.24;50.28;66.81;;
76339;Laerm;26644;50.248;19.032;2023-02-19T13:10:58;54.34;50.56;61.18;;
76339;Laerm;26644;50.248;19.032;2023-02-19T13:14:20;55.20;50.68;62.29;;
76339;Laerm;26644;50.248;19.032;2023-02-19T13:17:41;55.50;52.06;63.84;;
76339;Laerm;26644;50.248;19.032;2023-02-19T13:20:51;55.59;52.40;61.87;;
76339;Laerm;26644;50.248;19.032;2023-02-19T13:23:57;55.65;52.31;62.44;;
76339;Laerm;26644;50.248;19.032;2023-02-19T13:27:32;55.86;51.54;61.46;;
76339;Laerm;26644;50.248;19.032;2023-02-19T13:31:10;56.32;50.73;73.99;;
76339;Laerm;26644;50.248;19.032;2023-02-19T13:34:42;54.63;51.07;65.44;;
76339;Laerm;26644;50.248;19.032;2023-02-19T13:37:53;55.03;51.78;59.63;;
76339;Laerm;26644;50.248;19.032;2023-02-19T13:41:00;54.23;50.62;64.18;;
76339;Laerm;26644;50.248;19.032;2023-02-19T13:44:24;54.37;51.06;59.96;;
76339;Laerm;26644;50.248;19.032;2023-02-19T13:47:59;55.01;51.88;63.15;;
76339;Laerm;26644;50.248;19.032;2023-02-19T13:51:43;54.44;50.95;62.88;;
76339;Laerm;26644;50.248;19.032;2023-02-19T13:55:44;54.64;50.58;62.02;;
76339;Laerm;26644;50.248;19.032;2023-02-19T13:58:57;54.83;50.85;59.23;;
76339;Laerm;26644;50.248;19.032;2023-02-19T14:02:27;54.54;50.60;64.97;;
76339;Laerm;26644;50.248;19.032;2023-02-19T14:05:59;55.27;50.93;68.02;;
76339;Laerm;26644;50.248;19.032;2023-02-19T14:09:45;54.54;50.49;60.03;;
76339;Laerm;26644;50.248;19.032;2023-02-19T14:12:50;54.64;51.64;63.67;;
76339;Laerm;26644;50.248;19.032;2023-02-19T14:15:56;55.02;51.33;60.34;;
76339;Laerm;26644;50.248;19.032;2023-02-19T14:19:12;55.44;51.81;59.24;;
76339;Laerm;26644;50.248;19.032;2023-02-19T14:22:57;55.44;51.33;63.43;;
76339;Laerm;26644;50.248;19.032;2023-02-19T14:26:07;54.15;50.70;58.43;;
76339;Laerm;26644;50.248;19.032;2023-02-19T14:29:15;55.26;51.03;61.02;;
76339;Laerm;26644;50.248;19.032;2023-02-19T14:32:21;54.75;51.38;64.76;;
76339;Laerm;26644;50.248;19.032;2023-02-19T14:35:37;55.02;50.51;66.46;;
76339;Laerm;26644;50.248;19.032;2023-02-19T14:38:50;55.85;52.38;59.93;;
76339;Laerm;26644;50.248;19.032;2023-02-19T14:42:01;55.03;50.04;62.40;;
76339;Laerm;26644;50.248;19.032;2023-02-19T14:45:09;55.27;51.54;71.11;;
76339;Laerm;26644;50.248;19.032;2023-02-19T14:48:22;55.44;51.99;60.06;;
76339;Laerm;26644;50.248;19.032;2023-02-19T14:51:38;54.13;50.93;59.99;;
76339;Laerm;26644;50.248;19.032;2023-02-19T14:54:55;57.29;50.69;69.57;;
76339;Laerm;26644;50.248;19.032;2023-02-19T14:58:09;58.07;51.95;66.09;;
76339;Laerm;26644;50.248;19.032;2023-02-19T15:01:26;55.08;51.62;62.66;;
76339;Laerm;26644;50.248;19.032;2023-02-19T15:04:36;60.02;51.69;79.13;;
76339;Laerm;26644;50.248;19.032;2023-02-19T15:07:45;55.69;52.12;69.64;;
76339;Laerm;26644;50.248;19.032;2023-02-19T15:10:50;55.36;51.65;64.64;;
76339;Laerm;26644;50.248;19.032;2023-02-19T15:14:01;55.73;51.72;62.36;;
76339;Laerm;26644;50.248;19.032;2023-02-19T15:17:09;56.44;51.80;68.67;;
76339;Laerm;26644;50.248;19.032;2023-02-19T15:20:22;58.54;51.66;70.78;;
76339;Laerm;26644;50.248;19.032;2023-02-19T15:23:33;55.53;51.29;63.16;;
76339;Laerm;26644;50.248;19.032;2023-02-19T15:26:43;55.21;51.84;65.86;;
76339;Laerm;26644;50.248;19.032;2023-02-19T15:29:53;55.18;51.61;71.89;;
76339;Laerm;26644;50.248;19.032;2023-02-19T15:32:59;54.63;51.20;64.02;;
76339;Laerm;26644;50.248;19.032;2023-02-19T15:36:11;54.02;50.76;60.22;;
76339;Laerm;26644;50.248;19.032;2023-02-19T15:39:25;55.16;51.22;62.56;;
76339;Laerm;26644;50.248;19.032;2023-02-19T15:42:36;54.87;49.82;67.93;;
76339;Laerm;26644;50.248;19.032;2023-02-19T15:45:47;54.03;49.19;61.61;;
76339;Laerm;26644;50.248;19.032;2023-02-19T15:49:02;54.77;51.67;65.49;;
76339;Laerm;26644;50.248;19.032;2023-02-19T15:52:27;54.24;49.87;65.55;;
76339;Laerm;26644;50.248;19.032;2023-02-19T15:55:44;56.82;51.40;76.23;;
76339;Laerm;26644;50.248;19.032;2023-02-19T15:58:59;54.81;51.08;62.05;;
76339;Laerm;26644;50.248;19.032;2023-02-19T16:02:12;54.99;51.59;65.77;;
76339;Laerm;26644;50.248;19.032;2023-02-19T16:05:26;54.45;50.52;63.98;;
76339;Laerm;26644;50.248;19.032;2023-02-19T16:08:34;55.15;50.45;60.45;;
76339;Laerm;26644;50.248;19.032;2023-02-19T16:11:51;54.37;50.48;64.22;;
76339;Laerm;26644;50.248;19.032;2023-02-19T16:14:56;54.19;50.00;60.69;;
76339;Laerm;26644;50.248;19.032;2023-02-19T16:18:02;53.96;50.59;59.79;;
76339;Laerm;26644;50.248;19.032;2023-02-19T16:21:08;53.96;49.55;59.01;;
76339;Laerm;26644;50.248;19.032;2023-02-19T16:24:26;54.63;48.96;77.88;;
76339;Laerm;26644;50.248;19.032;2023-02-19T16:27:37;53.37;50.00;56.82;;
76339;Laerm;26644;50.248;19.032;2023-02-19T16:30:44;53.82;50.18;58.42;;
76339;Laerm;26644;50.248;19.032;2023-02-19T16:33:50;53.26;50.42;60.70;;
76339;Laerm;26644;50.248;19.032;2023-02-19T16:36:56;52.93;49.28;58.71;;
76339;Laerm;26644;50.248;19.032;2023-02-19T16:43:54;54.05;49.54;64.14;;
76339;Laerm;26644;50.248;19.032;2023-02-19T16:47:09;54.32;50.72;69.91;;
76339;Laerm;26644;50.248;19.032;2023-02-19T16:50:22;53.75;50.50;58.14;;
76339;Laerm;26644;50.248;19.032;2023-02-19T16:53:28;53.13;49.61;57.55;;
76339;Laerm;26644;50.248;19.032;2023-02-19T16:56:34;54.56;50.76;62.49;;
76339;Laerm;26644;50.248;19.032;2023-02-19T16:59:42;54.30;49.88;61.70;;
76339;Laerm;26644;50.248;19.032;2023-02-19T17:02:51;53.35;49.63;61.72;;
76339;Laerm;26644;50.248;19.032;2023-02-19T17:05:59;53.75;50.17;61.63;;
76339;Laerm;26644;50.248;19.032;2023-02-19T17:09:06;54.88;51.68;63.61;;
76339;Laerm;26644;50.248;19.032;2023-02-19T17:12:15;54.30;50.24;60.29;;
76339;Laerm;26644;50.248;19.032;2023-02-19T17:15:24;53.15;49.43;57.28;;
76339;Laerm;26644;50.248;19.032;2023-02-19T17:18:29;53.13;49.60;56.47;;
76339;Laerm;26644;50.248;19.032;2023-02-19T17:21:34;54.20;50.31;59.87;;
76339;Laerm;26644;50.248;19.032;2023-02-19T17:24:39;55.07;50.86;62.22;;
76339;Laerm;26644;50.248;19.032;2023-02-19T17:27:45;57.53;50.49;81.05;;
76339;Laerm;26644;50.248;19.032;2023-02-19T17:30:53;53.67;49.71;57.74;;
76339;Laerm;26644;50.248;19.032;2023-02-19T17:33:59;53.69;50.51;58.59;;
76339;Laerm;26644;50.248;19.032;2023-02-19T17:37:04;53.09;49.17;62.74;;
76339;Laerm;26644;50.248;19.032;2023-02-19T17:40:21;54.14;50.41;61.97;;
76339;Laerm;26644;50.248;19.032;2023-02-19T17:43:26;54.05;50.53;64.58;;
76339;Laerm;26644;50.248;19.032;2023-02-19T17:46:35;54.60;50.36;62.16;;